DLH33U EDDF-LOWW
Flight info
| Callsign | DLH33U |
|---|---|
| Flight time | N/A |
| Altitude | 31000 |
| Route | SULUS7S/18 SULUS Z650 VEMUT/N0391F290 DCT BUDEX BUDEX2W |
| Aircraft | A320/M-SDE2E3FGIJ1LORWXYZ/HB1 |
Departure
| Time | 2026-05-04 18:34 |
|---|---|
| Airport | Frankfurt Main Airport (EDDF) |
Arrival
| Time | N/A |
|---|---|
| Airport | Vienna International Airport (LOWW) |
| Time | Latitude | Longitude | Altitude | Speed | Heading |
|---|---|---|---|---|---|
| 2026-05-04 18:15 | 50.04393 | 8.56167 | 362 ft | 0 kts | 155° |
| 2026-05-04 18:19 | 50.04397 | 8.56164 | 362 ft | 4 kts | 155° |
| 2026-05-04 18:20 | 50.04422 | 8.56146 | 360 ft | 4 kts | 158° |
| 2026-05-04 18:20 | 50.04447 | 8.56135 | 362 ft | 4 kts | 189° |
| 2026-05-04 18:20 | 50.04459 | 8.56144 | 358 ft | 0 kts | 249° |
| 2026-05-04 18:25 | 50.04459 | 8.56143 | 359 ft | 0 kts | 249° |
| 2026-05-04 18:25 | 50.04456 | 8.56130 | 362 ft | 2 kts | 249° |
| 2026-05-04 18:26 | 50.04449 | 8.56102 | 365 ft | 4 kts | 249° |
| 2026-05-04 18:26 | 50.04434 | 8.56042 | 362 ft | 8 kts | 249° |
| 2026-05-04 18:26 | 50.04407 | 8.55975 | 361 ft | 5 kts | 211° |
| 2026-05-04 18:26 | 50.04386 | 8.55997 | 360 ft | 4 kts | 137° |
| 2026-05-04 18:27 | 50.04362 | 8.56032 | 360 ft | 5 kts | 136° |
| 2026-05-04 18:27 | 50.04329 | 8.56062 | 354 ft | 6 kts | 154° |
| 2026-05-04 18:27 | 50.04276 | 8.56052 | 358 ft | 10 kts | 217° |
| 2026-05-04 18:27 | 50.04239 | 8.55933 | 358 ft | 15 kts | 249° |
| 2026-05-04 18:28 | 50.04196 | 8.55758 | 359 ft | 19 kts | 248° |
| 2026-05-04 18:28 | 50.04145 | 8.55547 | 357 ft | 23 kts | 248° |
| 2026-05-04 18:28 | 50.04092 | 8.55324 | 363 ft | 21 kts | 250° |
| 2026-05-04 18:28 | 50.04040 | 8.55098 | 354 ft | 24 kts | 251° |
| 2026-05-04 18:29 | 50.03979 | 8.54839 | 356 ft | 25 kts | 250° |
| 2026-05-04 18:29 | 50.03921 | 8.54608 | 351 ft | 23 kts | 248° |
| 2026-05-04 18:29 | 50.03872 | 8.54395 | 354 ft | 12 kts | 246° |
| 2026-05-04 18:29 | 50.03849 | 8.54336 | 353 ft | 1 kts | 236° |
| 2026-05-04 18:30 | 50.03819 | 8.54275 | 351 ft | 7 kts | 234° |
| 2026-05-04 18:30 | 50.03793 | 8.54187 | 353 ft | 12 kts | 251° |
| 2026-05-04 18:30 | 50.03755 | 8.54036 | 349 ft | 19 kts | 249° |
| 2026-05-04 18:31 | 50.03703 | 8.53816 | 345 ft | 25 kts | 249° |
| 2026-05-04 18:31 | 50.03636 | 8.53543 | 337 ft | 28 kts | 248° |
| 2026-05-04 18:31 | 50.03565 | 8.53250 | 336 ft | 30 kts | 250° |
| 2026-05-04 18:31 | 50.03498 | 8.52977 | 346 ft | 24 kts | 250° |
| 2026-05-04 18:32 | 50.03441 | 8.52753 | 353 ft | 19 kts | 249° |
| 2026-05-04 18:32 | 50.03404 | 8.52607 | 355 ft | 7 kts | 244° |
| 2026-05-04 18:32 | 50.03362 | 8.52594 | 353 ft | 0 kts | 181° |
| 2026-05-04 18:33 | 50.03184 | 8.52596 | 345 ft | 67 kts | 179° |
| 2026-05-04 18:33 | 50.02470 | 8.52605 | 352 ft | 134 kts | 178° |
| 2026-05-04 18:33 | 50.01370 | 8.52591 | 509 ft | 172 kts | 171° |
| 2026-05-04 18:34 | 50.00205 | 8.52775 | 1257 ft | 167 kts | 179° |
| 2026-05-04 18:34 | 49.99026 | 8.52785 | 1806 ft | 177 kts | 181° |
| 2026-05-04 18:34 | 49.97723 | 8.52815 | 2117 ft | 199 kts | 171° |
| 2026-05-04 18:34 | 49.96413 | 8.53737 | 2356 ft | 221 kts | 137° |
| 2026-05-04 18:35 | 49.95567 | 8.55808 | 2943 ft | 234 kts | 113° |
| 2026-05-04 18:35 | 49.94844 | 8.58067 | 3923 ft | 234 kts | 119° |
| 2026-05-04 18:35 | 49.94199 | 8.60391 | 4873 ft | 238 kts | 105° |
| 2026-05-04 18:35 | 49.93954 | 8.63062 | 5326 ft | 262 kts | 97° |
| 2026-05-04 18:36 | 49.93795 | 8.65951 | 6127 ft | 272 kts | 100° |
| 2026-05-04 18:36 | 49.93283 | 8.68792 | 6729 ft | 276 kts | 118° |
| 2026-05-04 18:36 | 49.92192 | 8.71202 | 6914 ft | 272 kts | 138° |
| 2026-05-04 18:36 | 49.90682 | 8.72952 | 7319 ft | 273 kts | 148° |
| 2026-05-04 18:37 | 49.89144 | 8.74696 | 8324 ft | 277 kts | 141° |
| 2026-05-04 18:37 | 49.87879 | 8.76986 | 9267 ft | 285 kts | 126° |
| 2026-05-04 18:37 | 49.86898 | 8.79697 | 10157 ft | 292 kts | 122° |
| 2026-05-04 18:37 | 49.85873 | 8.82567 | 10532 ft | 316 kts | 122° |
| 2026-05-04 18:38 | 49.84777 | 8.85601 | 11144 ft | 328 kts | 122° |
| 2026-05-04 18:38 | 49.83652 | 8.88709 | 11950 ft | 334 kts | 122° |
| 2026-05-04 18:38 | 49.82509 | 8.91861 | 12768 ft | 338 kts | 122° |
| 2026-05-04 18:38 | 49.81349 | 8.95064 | 13584 ft | 343 kts | 121° |
| 2026-05-04 18:39 | 49.80715 | 8.97325 | 14057 ft | 350 kts | 109° |
| 2026-05-04 18:39 | 49.80514 | 9.02405 | 14990 ft | 363 kts | 81° |
| 2026-05-04 18:39 | 49.81112 | 9.06221 | 15702 ft | 366 kts | 77° |
| 2026-05-04 18:39 | 49.81756 | 9.10049 | 16429 ft | 370 kts | 77° |
| 2026-05-04 18:40 | 49.82412 | 9.13926 | 17135 ft | 374 kts | 77° |
| 2026-05-04 18:40 | 49.83070 | 9.17833 | 17845 ft | 377 kts | 77° |
| 2026-05-04 18:40 | 49.83730 | 9.21791 | 18494 ft | 382 kts | 77° |
| 2026-05-04 18:40 | 49.84391 | 9.25791 | 19099 ft | 385 kts | 77° |
| 2026-05-04 18:41 | 49.85055 | 9.29832 | 19701 ft | 389 kts | 77° |
| 2026-05-04 18:41 | 49.85722 | 9.33914 | 20296 ft | 392 kts | 77° |
| 2026-05-04 18:41 | 49.86392 | 9.38025 | 20887 ft | 396 kts | 77° |
| 2026-05-04 18:41 | 49.87069 | 9.42184 | 21474 ft | 399 kts | 77° |
| 2026-05-04 18:42 | 49.87748 | 9.46373 | 22049 ft | 403 kts | 78° |
| 2026-05-04 18:42 | 49.88433 | 9.50602 | 22602 ft | 406 kts | 78° |
| 2026-05-04 18:42 | 49.89124 | 9.54875 | 22911 ft | 409 kts | 78° |
| 2026-05-04 18:42 | 49.89815 | 9.59150 | 22973 ft | 409 kts | 78° |
| 2026-05-04 18:43 | 49.90506 | 9.63434 | 22974 ft | 409 kts | 78° |
| 2026-05-04 18:43 | 49.91193 | 9.67704 | 22966 ft | 409 kts | 78° |
| 2026-05-04 18:43 | 49.91879 | 9.71982 | 22967 ft | 409 kts | 78° |
| 2026-05-04 18:43 | 49.92564 | 9.76268 | 22963 ft | 409 kts | 78° |
| 2026-05-04 18:44 | 49.93247 | 9.80545 | 22965 ft | 409 kts | 78° |
| 2026-05-04 18:44 | 49.93700 | 9.83386 | 22959 ft | 409 kts | 78° |
| 2026-05-04 18:44 | 49.94614 | 9.89119 | 22961 ft | 409 kts | 78° |
| 2026-05-04 18:44 | 49.95295 | 9.93408 | 22962 ft | 409 kts | 78° |
| 2026-05-04 18:45 | 49.95970 | 9.97702 | 22959 ft | 409 kts | 78° |
| 2026-05-04 18:45 | 49.96641 | 10.01991 | 22956 ft | 409 kts | 78° |
| 2026-05-04 18:45 | 49.97312 | 10.06285 | 22956 ft | 410 kts | 78° |
| 2026-05-04 18:45 | 49.97984 | 10.10592 | 22962 ft | 410 kts | 78° |
| 2026-05-04 18:46 | 49.98653 | 10.14891 | 22961 ft | 410 kts | 78° |
| 2026-05-04 18:46 | 49.99256 | 10.19213 | 22957 ft | 408 kts | 85° |
| 2026-05-04 18:46 | 49.99238 | 10.23594 | 22963 ft | 405 kts | 98° |
| 2026-05-04 18:46 | 49.98933 | 10.27968 | 23389 ft | 409 kts | 98° |
| 2026-05-04 18:47 | 49.98614 | 10.32374 | 23910 ft | 412 kts | 99° |
| 2026-05-04 18:47 | 49.98284 | 10.36809 | 24371 ft | 415 kts | 99° |
| 2026-05-04 18:47 | 49.97952 | 10.41280 | 24826 ft | 418 kts | 99° |
| 2026-05-04 18:47 | 49.97620 | 10.45780 | 25266 ft | 421 kts | 99° |
| 2026-05-04 18:48 | 49.97285 | 10.50322 | 25698 ft | 425 kts | 99° |
| 2026-05-04 18:48 | 49.96945 | 10.54895 | 26130 ft | 428 kts | 99° |
| 2026-05-04 18:48 | 49.96601 | 10.59503 | 26551 ft | 431 kts | 99° |
| 2026-05-04 18:48 | 49.96252 | 10.64140 | 26969 ft | 434 kts | 99° |
| 2026-05-04 18:49 | 49.95898 | 10.68814 | 27386 ft | 437 kts | 99° |
| 2026-05-04 18:49 | 49.95539 | 10.73526 | 27797 ft | 440 kts | 99° |
| 2026-05-04 18:49 | 49.95178 | 10.78262 | 28200 ft | 444 kts | 99° |
| 2026-05-04 18:49 | 49.94814 | 10.83024 | 28607 ft | 446 kts | 99° |
| 2026-05-04 18:50 | 49.94452 | 10.87762 | 28994 ft | 449 kts | 99° |
| 2026-05-04 18:50 | 49.94078 | 10.92596 | 29395 ft | 452 kts | 99° |
| 2026-05-04 18:50 | 49.93698 | 10.97465 | 29785 ft | 455 kts | 99° |
| 2026-05-04 18:50 | 49.93312 | 11.02352 | 30151 ft | 458 kts | 99° |
| 2026-05-04 18:51 | 49.92920 | 11.07268 | 30501 ft | 460 kts | 99° |
| 2026-05-04 18:51 | 49.92526 | 11.12206 | 30831 ft | 462 kts | 99° |
| 2026-05-04 18:51 | 49.92133 | 11.17152 | 30935 ft | 458 kts | 99° |
| 2026-05-04 18:51 | 49.91752 | 11.21965 | 30955 ft | 440 kts | 99° |
| 2026-05-04 18:52 | 49.91386 | 11.26601 | 30954 ft | 427 kts | 99° |
| 2026-05-04 18:52 | 49.90656 | 11.35662 | 30952 ft | 421 kts | 99° |
| 2026-05-04 18:53 | 49.89910 | 11.44664 | 30953 ft | 421 kts | 99° |
| 2026-05-04 18:53 | 49.89158 | 11.53652 | 30958 ft | 420 kts | 99° |
| 2026-05-04 18:54 | 49.88406 | 11.62644 | 30964 ft | 420 kts | 99° |
| 2026-05-04 18:54 | 49.87646 | 11.71626 | 30968 ft | 420 kts | 99° |
| 2026-05-04 18:55 | 49.86880 | 11.80601 | 30975 ft | 420 kts | 99° |
| 2026-05-04 18:55 | 49.85729 | 11.93991 | 30972 ft | 420 kts | 99° |
| 2026-05-04 18:56 | 49.84944 | 12.03010 | 30969 ft | 420 kts | 99° |
| 2026-05-04 18:56 | 49.84165 | 12.11907 | 30965 ft | 419 kts | 99° |
| 2026-05-04 18:57 | 49.83367 | 12.20858 | 30957 ft | 419 kts | 99° |
| 2026-05-04 18:57 | 49.82557 | 12.29801 | 30960 ft | 419 kts | 99° |
| 2026-05-04 18:58 | 49.81743 | 12.38745 | 30947 ft | 419 kts | 99° |
| 2026-05-04 18:58 | 49.80219 | 12.47369 | 30945 ft | 414 kts | 118° |
| 2026-05-04 18:59 | 49.77183 | 12.54860 | 30937 ft | 411 kts | 127° |
| 2026-05-04 18:59 | 49.73942 | 12.62137 | 30942 ft | 411 kts | 127° |
| 2026-05-04 19:00 | 49.70700 | 12.69399 | 30943 ft | 410 kts | 127° |
| 2026-05-04 19:00 | 49.67446 | 12.76639 | 30937 ft | 410 kts | 127° |
| 2026-05-04 19:01 | 49.64742 | 12.82642 | 30940 ft | 410 kts | 127° |
| 2026-05-04 19:01 | 49.60936 | 12.91077 | 30937 ft | 410 kts | 127° |
| 2026-05-04 19:02 | 49.58232 | 12.97065 | 30937 ft | 409 kts | 127° |
| 2026-05-04 19:02 | 49.54975 | 13.04262 | 30936 ft | 409 kts | 127° |
| 2026-05-04 19:03 | 49.51712 | 13.11436 | 30935 ft | 409 kts | 127° |
| 2026-05-04 19:03 | 49.48452 | 13.18597 | 30929 ft | 409 kts | 128° |
| 2026-05-04 19:04 | 49.45183 | 13.25745 | 30931 ft | 408 kts | 128° |
| 2026-05-04 19:04 | 49.41912 | 13.32879 | 30940 ft | 408 kts | 128° |
| 2026-05-04 19:05 | 49.38645 | 13.40002 | 30944 ft | 408 kts | 128° |
| 2026-05-04 19:05 | 49.35370 | 13.47113 | 30935 ft | 408 kts | 128° |
| 2026-05-04 19:06 | 49.32094 | 13.54211 | 30938 ft | 408 kts | 128° |
| 2026-05-04 19:06 | 49.28817 | 13.61297 | 30940 ft | 407 kts | 128° |
| 2026-05-04 19:07 | 49.25536 | 13.68373 | 30937 ft | 408 kts | 128° |
| 2026-05-04 19:07 | 49.22244 | 13.75450 | 30939 ft | 412 kts | 128° |
| 2026-05-04 19:08 | 49.20549 | 13.79065 | 30940 ft | 425 kts | 128° |
| 2026-05-04 19:08 | 49.18801 | 13.82788 | 30942 ft | 437 kts | 128° |
| 2026-05-04 19:08 | 49.17003 | 13.86612 | 30943 ft | 448 kts | 128° |
| 2026-05-04 19:08 | 49.15169 | 13.90523 | 30942 ft | 455 kts | 128° |
| 2026-05-04 19:09 | 49.11468 | 13.98428 | 30941 ft | 459 kts | 128° |
| 2026-05-04 19:09 | 49.07754 | 14.06347 | 30937 ft | 459 kts | 128° |
| 2026-05-04 19:10 | 49.04025 | 14.14242 | 30936 ft | 459 kts | 128° |
| 2026-05-04 19:10 | 49.00285 | 14.22121 | 30935 ft | 459 kts | 128° |
| 2026-05-04 19:11 | 48.96547 | 14.29990 | 30925 ft | 459 kts | 128° |
| 2026-05-04 19:11 | 48.92974 | 14.38038 | 30922 ft | 460 kts | 123° |
| 2026-05-04 19:12 | 48.88236 | 14.50456 | 30930 ft | 451 kts | 121° |
| 2026-05-04 19:13 | 48.85166 | 14.58613 | 30497 ft | 437 kts | 121° |
| 2026-05-04 19:13 | 48.83656 | 14.62589 | 30002 ft | 432 kts | 122° |
| 2026-05-04 19:13 | 48.82155 | 14.66513 | 29408 ft | 428 kts | 122° |
| 2026-05-04 19:13 | 48.80662 | 14.70399 | 28823 ft | 424 kts | 122° |
| 2026-05-04 19:14 | 48.79180 | 14.74242 | 28249 ft | 421 kts | 122° |
| 2026-05-04 19:14 | 48.77710 | 14.78052 | 27672 ft | 417 kts | 122° |
| 2026-05-04 19:14 | 48.76249 | 14.81834 | 27115 ft | 414 kts | 122° |
| 2026-05-04 19:14 | 48.74801 | 14.85582 | 26558 ft | 410 kts | 122° |
| 2026-05-04 19:15 | 48.73362 | 14.89290 | 26147 ft | 404 kts | 122° |
| 2026-05-04 19:15 | 48.71953 | 14.92883 | 26015 ft | 390 kts | 122° |
| 2026-05-04 19:15 | 48.70594 | 14.96376 | 25747 ft | 382 kts | 120° |
| 2026-05-04 19:15 | 48.69612 | 15.00087 | 25361 ft | 379 kts | 109° |
| 2026-05-04 19:16 | 48.68799 | 15.03859 | 24920 ft | 376 kts | 109° |
| 2026-05-04 19:16 | 48.67996 | 15.07613 | 24476 ft | 374 kts | 109° |
| 2026-05-04 19:16 | 48.67202 | 15.11339 | 24059 ft | 371 kts | 109° |
| 2026-05-04 19:16 | 48.66411 | 15.15046 | 23637 ft | 369 kts | 109° |
| 2026-05-04 19:17 | 48.65623 | 15.18722 | 23178 ft | 367 kts | 109° |
| 2026-05-04 19:17 | 48.64838 | 15.22378 | 22727 ft | 364 kts | 109° |
| 2026-05-04 19:17 | 48.64058 | 15.25996 | 22294 ft | 361 kts | 109° |
| 2026-05-04 19:17 | 48.63281 | 15.29590 | 21871 ft | 358 kts | 109° |
| 2026-05-04 19:18 | 48.62509 | 15.33146 | 21458 ft | 355 kts | 109° |
| 2026-05-04 19:18 | 48.61739 | 15.36679 | 21047 ft | 352 kts | 109° |
| 2026-05-04 19:18 | 48.60975 | 15.40182 | 20643 ft | 350 kts | 109° |
| 2026-05-04 19:18 | 48.60219 | 15.43655 | 20251 ft | 347 kts | 109° |
| 2026-05-04 19:19 | 48.59465 | 15.47117 | 19674 ft | 350 kts | 109° |
| 2026-05-04 19:19 | 48.58686 | 15.50682 | 18730 ft | 365 kts | 110° |
| 2026-05-04 19:19 | 48.57870 | 15.54391 | 17690 ft | 379 kts | 110° |
| 2026-05-04 19:19 | 48.57030 | 15.58211 | 16850 ft | 385 kts | 110° |
| 2026-05-04 19:20 | 48.56187 | 15.62047 | 16262 ft | 384 kts | 110° |
| 2026-05-04 19:20 | 48.55352 | 15.65854 | 15727 ft | 381 kts | 110° |
| 2026-05-04 19:20 | 48.54525 | 15.69629 | 15213 ft | 378 kts | 110° |
| 2026-05-04 19:20 | 48.53700 | 15.73375 | 14700 ft | 375 kts | 110° |
| 2026-05-04 19:21 | 48.52877 | 15.77091 | 14206 ft | 372 kts | 110° |
| 2026-05-04 19:21 | 48.52059 | 15.80772 | 13697 ft | 369 kts | 111° |
| 2026-05-04 19:21 | 48.51245 | 15.84425 | 13159 ft | 366 kts | 110° |
| 2026-05-04 19:21 | 48.50436 | 15.88051 | 12598 ft | 363 kts | 110° |
| 2026-05-04 19:22 | 48.49633 | 15.91648 | 12033 ft | 361 kts | 110° |
| 2026-05-04 19:22 | 48.48835 | 15.95216 | 11463 ft | 358 kts | 110° |
| 2026-05-04 19:22 | 48.48045 | 15.98760 | 10912 ft | 355 kts | 110° |
| 2026-05-04 19:22 | 48.47259 | 16.02276 | 10322 ft | 354 kts | 110° |
| 2026-05-04 19:23 | 48.46482 | 16.05735 | 9792 ft | 352 kts | 110° |
| 2026-05-04 19:23 | 48.45687 | 16.09258 | 9283 ft | 349 kts | 110° |
| 2026-05-04 19:23 | 48.44920 | 16.12659 | 8795 ft | 346 kts | 110° |
| 2026-05-04 19:23 | 48.44142 | 16.16118 | 8298 ft | 343 kts | 110° |
| 2026-05-04 19:24 | 48.43388 | 16.19459 | 7802 ft | 340 kts | 110° |
| 2026-05-04 19:24 | 48.42630 | 16.22800 | 7297 ft | 333 kts | 111° |
| 2026-05-04 19:24 | 48.41827 | 16.26077 | 6791 ft | 333 kts | 112° |
| 2026-05-04 19:24 | 48.41007 | 16.29328 | 6337 ft | 330 kts | 111° |
| 2026-05-04 19:25 | 48.40221 | 16.32525 | 6332 ft | 321 kts | 111° |
| 2026-05-04 19:25 | 48.39464 | 16.35634 | 6330 ft | 313 kts | 112° |
| 2026-05-04 19:25 | 48.38427 | 16.38448 | 6326 ft | 304 kts | 126° |
| 2026-05-04 19:25 | 48.37211 | 16.41021 | 6327 ft | 298 kts | 127° |
| 2026-05-04 19:26 | 48.35985 | 16.43574 | 6334 ft | 307 kts | 126° |
| 2026-05-04 19:26 | 48.34608 | 16.46101 | 6327 ft | 319 kts | 139° |
| 2026-05-04 19:26 | 48.32698 | 16.47846 | 6240 ft | 323 kts | 154° |
| 2026-05-04 19:26 | 48.30672 | 16.49278 | 5746 ft | 321 kts | 155° |
| 2026-05-04 19:27 | 48.28650 | 16.50658 | 5286 ft | 314 kts | 160° |
| 2026-05-04 19:27 | 48.26589 | 16.51674 | 4729 ft | 312 kts | 162° |
| 2026-05-04 19:27 | 48.24610 | 16.52983 | 4205 ft | 309 kts | 156° |
| 2026-05-04 19:27 | 48.22698 | 16.54369 | 3720 ft | 302 kts | 160° |